createdAt,value
2023-03-01T00:00:01.543Z,9.9
2023-03-01T00:05:03.699Z,9.9
2023-03-01T00:10:05.893Z,9.9
2023-03-01T00:15:08.042Z,10
2023-03-01T00:20:10.317Z,10
2023-03-01T00:25:12.445Z,10
2023-03-01T00:30:14.568Z,10
2023-03-01T00:35:16.727Z,10
2023-03-01T00:40:18.847Z,10
2023-03-01T00:45:21.078Z,10
2023-03-01T00:50:23.382Z,10
2023-03-01T00:55:25.495Z,10
2023-03-01T01:00:27.629Z,10
2023-03-01T01:05:29.914Z,10
2023-03-01T01:10:32.052Z,9.9
2023-03-01T01:15:34.194Z,9.9
2023-03-01T01:20:36.440Z,9.9
2023-03-01T01:25:38.562Z,9.9
2023-03-01T01:30:40.833Z,9.9
2023-03-01T01:35:43.077Z,9.9
2023-03-01T01:40:45.166Z,9.9
2023-03-01T01:45:47.288Z,9.9
2023-03-01T01:50:49.565Z,9.8
2023-03-01T01:55:51.684Z,9.8
2023-03-01T02:00:53.916Z,9.8
2023-03-01T02:05:56.259Z,9.8
2023-03-01T02:10:58.473Z,9.8
2023-03-01T02:16:00.643Z,9.8
2023-03-01T02:21:02.943Z,9.8
2023-03-01T02:26:05.033Z,9.8
2023-03-01T02:31:07.353Z,9.8
2023-03-01T02:36:09.595Z,9.8
2023-03-01T02:41:11.708Z,9.8
2023-03-01T02:46:13.932Z,9.7
2023-03-01T02:51:16.084Z,9.7
2023-03-01T02:56:18.176Z,9.7
2023-03-01T03:01:20.316Z,9.6
2023-03-01T03:06:22.469Z,9.6
2023-03-01T03:11:24.648Z,9.6
2023-03-01T03:16:26.854Z,9.6
2023-03-01T03:21:28.948Z,9.5
2023-03-01T03:26:31.344Z,9.5
2023-03-01T03:31:33.252Z,9.5
2023-03-01T03:36:35.422Z,9.5
2023-03-01T03:41:37.529Z,9.5
2023-03-01T03:46:39.794Z,9.5
2023-03-01T03:51:42.023Z,9.5
2023-03-01T03:56:44.139Z,9.5
2023-03-01T04:01:46.415Z,9.5
2023-03-01T04:06:48.632Z,9.5
2023-03-01T04:11:50.786Z,9.5
2023-03-01T04:16:53.071Z,9.5
2023-03-01T04:21:55.265Z,9.5
2023-03-01T04:26:57.345Z,9.4
2023-03-01T04:31:59.603Z,9.4
2023-03-01T04:37:01.638Z,9.4
2023-03-01T04:42:03.811Z,9.4
2023-03-01T04:47:05.977Z,9.4
2023-03-01T04:52:08.296Z,9.4
2023-03-01T04:57:10.397Z,9.4
2023-03-01T05:02:12.525Z,9.4
2023-03-01T05:07:14.689Z,9.4
2023-03-01T05:12:16.909Z,9.4
2023-03-01T05:17:19.083Z,9.4
2023-03-01T05:22:21.258Z,9.4
2023-03-01T05:27:23.468Z,9.4
2023-03-01T05:32:25.698Z,9.4
2023-03-01T05:37:27.764Z,9.4
2023-03-01T05:42:30.019Z,9.4
2023-03-01T05:47:32.165Z,9.4
2023-03-01T05:52:34.324Z,9.3
2023-03-01T05:57:36.427Z,9.3
2023-03-01T06:02:38.557Z,9.2
2023-03-01T06:07:40.709Z,9.2
2023-03-01T06:12:42.954Z,9.2
2023-03-01T06:17:45.115Z,9.2
2023-03-01T06:22:47.307Z,9.2
2023-03-01T06:27:49.483Z,9.2
2023-03-01T06:32:51.603Z,9.2
2023-03-01T06:37:53.776Z,9.1
2023-03-01T06:42:56.020Z,9.1
2023-03-01T06:47:58.170Z,9.1
2023-03-01T06:53:00.314Z,9.1
2023-03-01T06:58:02.553Z,9
2023-03-01T07:03:04.742Z,9
2023-03-01T07:08:06.843Z,9
2023-03-01T07:13:09.056Z,9
2023-03-01T07:18:11.214Z,8.9
2023-03-01T07:23:13.378Z,8.9
2023-03-01T07:28:15.544Z,8.9
2023-03-01T07:33:17.794Z,8.8
2023-03-01T07:38:19.830Z,8.8
2023-03-01T07:43:22.061Z,8.9
2023-03-01T07:48:24.249Z,8.9
2023-03-01T07:53:26.385Z,8.9
2023-03-01T07:58:28.564Z,9
2023-03-01T08:03:30.763Z,9
2023-03-01T08:08:32.878Z,9
2023-03-01T08:13:34.982Z,9
2023-03-01T08:18:37.114Z,9
2023-03-01T08:23:39.265Z,9.1
2023-03-01T08:28:41.484Z,9.2
2023-03-01T08:33:43.631Z,9.3
2023-03-01T08:38:45.773Z,9.4
2023-03-01T08:43:47.997Z,9.4
2023-03-01T08:48:50.113Z,9.5
2023-03-01T08:53:52.399Z,9.5
2023-03-01T08:58:54.631Z,9.5
2023-03-01T09:03:56.834Z,9.5
2023-03-01T09:08:58.946Z,9.5
2023-03-01T09:14:01.172Z,9.5
2023-03-01T09:19:03.397Z,9.5
2023-03-01T09:24:05.537Z,9.5
2023-03-01T09:29:07.723Z,9.5
2023-03-01T09:34:09.899Z,9.6
2023-03-01T09:39:12.033Z,9.6
2023-03-01T09:44:14.128Z,9.6
2023-03-01T09:49:16.266Z,9.6
2023-03-01T09:54:18.510Z,9.6
2023-03-01T09:59:22.267Z,9.6
2023-03-01T10:04:22.906Z,9.6
2023-03-01T10:09:25.149Z,9.7
2023-03-01T10:14:27.309Z,9.8
2023-03-01T10:19:29.499Z,9.9
2023-03-01T10:24:31.763Z,9.9
2023-03-01T10:29:33.821Z,9.9
2023-03-01T10:34:35.943Z,9.8
2023-03-01T10:39:38.120Z,9.8
2023-03-01T10:44:40.387Z,9.8
2023-03-01T10:49:42.518Z,9.8
2023-03-01T10:54:44.708Z,9.8
2023-03-01T10:59:46.912Z,9.8
2023-03-01T11:04:49.097Z,9.8
2023-03-01T11:09:51.370Z,9.8
2023-03-01T11:14:53.584Z,9.8
2023-03-01T11:20:02.467Z,9.8
2023-03-01T11:25:09.234Z,9.8
2023-03-01T11:30:00.127Z,9.9
2023-03-01T11:35:02.221Z,9.9
2023-03-01T11:40:04.488Z,9.9
2023-03-01T11:45:06.586Z,10
2023-03-01T11:50:08.830Z,10
2023-03-01T11:55:11.069Z,10
2023-03-01T12:00:13.194Z,10
2023-03-01T12:05:15.415Z,10
2023-03-01T12:10:17.926Z,10
2023-03-01T12:15:19.800Z,10
2023-03-01T12:20:22.040Z,10
2023-03-01T12:25:24.292Z,10.1
2023-03-01T12:30:26.338Z,10.1
2023-03-01T12:35:28.479Z,10.1
2023-03-01T12:40:30.698Z,10.1
2023-03-01T12:45:32.861Z,10.1
2023-03-01T12:50:35.714Z,10.1
2023-03-01T12:55:38.088Z,10.1
2023-03-01T13:00:40.192Z,10.2
2023-03-01T13:05:42.316Z,10.2
2023-03-01T13:10:44.524Z,10.2
2023-03-01T13:15:46.622Z,10.3
2023-03-01T13:20:48.859Z,10.4
2023-03-01T13:25:51.031Z,10.5
2023-03-01T13:30:53.291Z,10.6
2023-03-01T13:35:55.596Z,10.6
2023-03-01T13:40:57.725Z,10.7
2023-03-01T13:45:59.998Z,10.7
2023-03-01T13:51:02.151Z,10.7
2023-03-01T13:56:04.410Z,10.7
2023-03-01T14:01:06.586Z,10.7
2023-03-01T14:06:15.158Z,10.7
2023-03-01T14:11:10.993Z,10.7
2023-03-01T14:16:13.260Z,10.7
2023-03-01T14:21:15.379Z,10.8
2023-03-01T14:26:17.625Z,10.8
2023-03-01T14:31:19.761Z,10.8
2023-03-01T14:36:21.890Z,10.8
2023-03-01T14:41:24.066Z,10.8
2023-03-01T14:46:26.213Z,10.8
2023-03-01T14:51:28.416Z,10.8
2023-03-01T14:56:30.915Z,10.8
2023-03-01T15:01:32.737Z,10.8
2023-03-01T15:06:34.961Z,10.9
2023-03-01T15:11:37.124Z,10.9
2023-03-01T15:16:39.408Z,10.9
2023-03-01T15:21:41.581Z,10.9
2023-03-01T15:26:43.746Z,10.9
2023-03-01T15:31:45.933Z,10.9
2023-03-01T15:36:48.192Z,10.9
2023-03-01T15:41:50.498Z,10.9
2023-03-01T15:46:52.597Z,10.9
2023-03-01T15:51:54.727Z,10.8
2023-03-01T15:56:56.887Z,10.8
2023-03-01T16:01:58.985Z,10.8
2023-03-01T16:07:01.111Z,10.8
2023-03-01T16:12:03.337Z,10.8
2023-03-01T16:17:05.589Z,10.8
2023-03-01T16:22:07.723Z,10.8
2023-03-01T16:27:09.888Z,10.8
2023-03-01T16:32:12.082Z,10.8
2023-03-01T16:37:14.120Z,10.8
2023-03-01T16:42:16.394Z,10.8
2023-03-01T16:47:18.474Z,10.8
2023-03-01T16:52:20.748Z,10.8
2023-03-01T16:57:22.913Z,10.8
2023-03-01T17:02:25.109Z,10.8
2023-03-01T17:07:27.344Z,10.8
2023-03-01T17:12:29.517Z,10.8
2023-03-01T17:17:31.733Z,10.7
2023-03-01T17:22:33.883Z,10.7
2023-03-01T17:27:36.020Z,10.7
2023-03-01T17:32:38.381Z,10.7
2023-03-01T17:37:40.375Z,10.7
2023-03-01T17:42:42.651Z,10.7
2023-03-01T17:47:44.860Z,10.7
2023-03-01T17:52:47.009Z,10.6
2023-03-01T17:57:49.158Z,10.6
2023-03-01T18:02:51.272Z,10.6
2023-03-01T18:07:53.417Z,10.6
2023-03-01T18:12:55.577Z,10.6
2023-03-01T18:17:57.866Z,10.5
2023-03-01T18:23:00.011Z,10.5
2023-03-01T18:28:02.168Z,10.4
2023-03-01T18:33:04.438Z,10.4
2023-03-01T18:38:06.908Z,10.3
2023-03-01T18:43:09.165Z,10.2
2023-03-01T18:48:11.595Z,10.2
2023-03-01T18:53:13.744Z,10.2
2023-03-01T18:58:16.066Z,10.1
2023-03-01T19:03:18.266Z,10.1
2023-03-01T19:08:20.482Z,10.1
2023-03-01T19:13:22.698Z,10.1
2023-03-01T19:18:24.806Z,10.2
2023-03-01T19:23:27.068Z,10.2
2023-03-01T19:28:29.245Z,10.2
2023-03-01T19:33:31.456Z,10.2
2023-03-01T19:38:33.717Z,10.1
2023-03-01T19:43:35.882Z,10.1
2023-03-01T19:48:38.101Z,10
2023-03-01T19:53:40.367Z,10
2023-03-01T19:58:42.537Z,10
2023-03-01T20:03:44.730Z,9.9
2023-03-01T20:08:47.020Z,9.9
2023-03-01T20:13:49.202Z,9.9
2023-03-01T20:18:51.316Z,9.9
2023-03-01T20:23:53.590Z,9.9
2023-03-01T20:28:55.760Z,9.8
2023-03-01T20:33:57.997Z,9.8
2023-03-01T20:39:00.284Z,9.8
2023-03-01T20:44:02.524Z,9.8
2023-03-01T20:49:04.699Z,9.8
2023-03-01T20:54:06.872Z,9.8
2023-03-01T20:59:09.031Z,9.7
2023-03-01T21:04:11.199Z,9.7
2023-03-01T21:09:13.392Z,9.7
2023-03-01T21:14:15.561Z,9.7
2023-03-01T21:19:17.683Z,9.7
2023-03-01T21:24:19.821Z,9.7
2023-03-01T21:29:21.983Z,9.7
2023-03-01T21:34:24.156Z,9.7
2023-03-01T21:39:26.315Z,9.7
2023-03-01T21:44:28.590Z,9.7
2023-03-01T21:49:30.725Z,9.7
2023-03-01T21:54:34.160Z,9.7
2023-03-01T21:59:35.045Z,9.7
2023-03-01T22:04:37.549Z,9.7
2023-03-01T22:09:40.058Z,9.7
2023-03-01T22:14:42.341Z,9.7
2023-03-01T22:19:44.692Z,9.7
2023-03-01T22:24:46.950Z,9.8
2023-03-01T22:29:49.136Z,9.8
2023-03-01T22:34:51.343Z,9.8
2023-03-01T22:39:53.489Z,9.8
2023-03-01T22:44:55.660Z,9.9
2023-03-01T22:49:57.778Z,9.9
2023-03-01T22:54:59.902Z,9.9
2023-03-01T23:00:02.071Z,9.8
2023-03-01T23:05:04.244Z,9.8
2023-03-01T23:10:06.383Z,9.8
2023-03-01T23:15:08.536Z,9.7
2023-03-01T23:20:10.744Z,9.7
2023-03-01T23:25:12.976Z,9.7
2023-03-01T23:30:15.128Z,9.7
2023-03-01T23:35:17.295Z,9.7
2023-03-01T23:40:19.442Z,9.7
2023-03-01T23:45:21.695Z,9.7
2023-03-01T23:50:24.977Z,9.7
2023-03-01T23:55:26.421Z,9.7
